createdAt,value
2018-07-02T00:01:21.110Z,62.60
2018-07-02T00:03:49.511Z,62.60
2018-07-02T00:06:39.656Z,63.20
2018-07-02T00:09:08.049Z,63.10
2018-07-02T00:11:36.514Z,63.70
2018-07-02T00:14:05.190Z,64.00
2018-07-02T00:16:33.532Z,64.10
2018-07-02T00:19:01.888Z,64.20
2018-07-02T00:21:30.289Z,64.50
2018-07-02T00:23:58.627Z,64.90
2018-07-02T00:26:26.953Z,64.90
2018-07-02T00:28:55.334Z,64.80
2018-07-02T00:31:23.736Z,65.40
2018-07-02T00:33:52.058Z,65.10
2018-07-02T00:36:20.377Z,64.90
2018-07-02T00:38:48.746Z,65.30
2018-07-02T00:41:17.147Z,65.10
2018-07-02T00:43:45.472Z,65.40
2018-07-02T00:46:13.798Z,65.30
2018-07-02T00:48:42.156Z,65.80
2018-07-02T00:51:10.590Z,66.00
2018-07-02T00:53:39.067Z,66.30
2018-07-02T00:56:07.501Z,66.10
2018-07-02T00:58:36.046Z,65.80
2018-07-02T01:01:04.487Z,65.80
2018-07-02T01:03:32.945Z,65.90
2018-07-02T01:06:01.348Z,66.00
2018-07-02T01:08:29.732Z,66.00
2018-07-02T01:10:58.077Z,66.20
2018-07-02T01:13:26.439Z,65.30
2018-07-02T01:15:54.841Z,65.80
2018-07-02T01:18:23.225Z,65.70
2018-07-02T01:20:51.579Z,66.30
2018-07-02T01:23:19.947Z,66.30
2018-07-02T01:25:48.280Z,66.30
2018-07-02T01:28:16.732Z,66.50
2018-07-02T01:30:45.089Z,67.10
2018-07-02T01:33:14.070Z,66.30
2018-07-02T01:35:42.566Z,66.90
2018-07-02T01:38:10.929Z,66.70
2018-07-02T01:40:39.241Z,66.90
2018-07-02T01:43:07.582Z,67.00
2018-07-02T01:45:35.901Z,66.80
2018-07-02T01:48:04.249Z,66.60
2018-07-02T01:50:32.576Z,66.40
2018-07-02T01:53:01.029Z,66.50
2018-07-02T01:55:29.553Z,66.60
2018-07-02T02:00:25.954Z,67.20
2018-07-02T02:02:54.398Z,66.90
2018-07-02T02:05:22.819Z,67.20
2018-07-02T02:07:51.274Z,67.30
2018-07-02T02:10:19.643Z,67.60
2018-07-02T02:12:48.378Z,67.80
2018-07-02T02:15:16.746Z,67.20
2018-07-02T02:17:45.104Z,66.90
2018-07-02T02:20:13.494Z,66.80
2018-07-02T02:22:42.240Z,67.00
2018-07-02T02:25:10.522Z,67.10
2018-07-02T02:27:38.936Z,67.20
2018-07-02T02:30:07.530Z,67.20
2018-07-02T02:32:35.974Z,67.50
2018-07-02T02:35:04.696Z,67.80
2018-07-02T02:37:33.090Z,67.90
2018-07-02T02:40:01.461Z,67.70
2018-07-02T02:42:29.887Z,67.90
2018-07-02T02:44:58.399Z,68.10
2018-07-02T02:47:26.836Z,68.50
2018-07-02T02:49:55.333Z,68.50
2018-07-02T02:52:23.679Z,68.70
2018-07-02T02:54:52.035Z,69.10
2018-07-02T02:57:20.374Z,69.20
2018-07-02T02:59:48.720Z,69.30
2018-07-02T03:02:17.058Z,69.80
2018-07-02T03:04:45.388Z,70.30
2018-07-02T03:07:13.710Z,70.30
2018-07-02T03:09:42.015Z,70.40
2018-07-02T03:12:10.396Z,70.90
2018-07-02T03:14:38.828Z,71.00
2018-07-02T03:17:07.183Z,71.10
2018-07-02T03:19:35.628Z,71.40
2018-07-02T03:22:04.024Z,71.60
2018-07-02T03:27:01.549Z,71.10
2018-07-02T03:29:29.861Z,71.60
2018-07-02T03:31:58.318Z,71.40
2018-07-02T03:34:26.792Z,71.30
2018-07-02T03:36:55.160Z,71.40
2018-07-02T03:39:23.525Z,71.10
2018-07-02T03:41:51.837Z,71.10
2018-07-02T03:44:20.234Z,71.10
2018-07-02T03:46:48.540Z,71.20
2018-07-02T03:49:16.860Z,71.10
2018-07-02T03:51:45.203Z,71.20
2018-07-02T03:54:13.599Z,71.00
2018-07-02T03:56:42.029Z,70.80
2018-07-02T03:59:10.447Z,70.80
2018-07-02T04:01:38.839Z,70.90
2018-07-02T04:04:07.157Z,71.00
2018-07-02T04:06:35.468Z,70.70
2018-07-02T04:09:06.229Z,70.80
2018-07-02T04:11:34.543Z,71.00
2018-07-02T04:14:02.913Z,71.20
2018-07-02T04:16:31.283Z,71.00
2018-07-02T04:19:03.836Z,70.80
2018-07-02T04:21:32.247Z,70.70
2018-07-02T04:24:00.616Z,71.00
2018-07-02T04:26:29.075Z,71.30
2018-07-02T04:28:57.392Z,71.60
2018-07-02T04:31:25.808Z,71.60
2018-07-02T04:33:54.254Z,71.70
2018-07-02T04:36:22.653Z,71.60
2018-07-02T04:38:51.131Z,72.10
2018-07-02T04:41:19.723Z,71.90
2018-07-02T04:43:48.137Z,71.60
2018-07-02T04:46:16.855Z,71.70
2018-07-02T04:48:45.419Z,72.30
2018-07-02T04:51:13.818Z,71.60
2018-07-02T04:53:42.297Z,71.60
2018-07-02T04:56:10.954Z,70.80
2018-07-02T04:58:39.419Z,71.00
2018-07-02T05:01:08.751Z,71.10
2018-07-02T05:03:37.076Z,71.20
2018-07-02T05:06:05.806Z,70.90
2018-07-02T05:08:34.214Z,70.90
2018-07-02T05:11:02.556Z,70.80
2018-07-02T05:13:30.936Z,70.60
2018-07-02T05:15:59.271Z,70.60
2018-07-02T05:18:27.760Z,70.60
2018-07-02T05:20:56.092Z,70.20
2018-07-02T05:23:24.678Z,70.10
2018-07-02T05:25:53.151Z,69.70
2018-07-02T05:28:21.497Z,69.90
2018-07-02T05:30:49.891Z,69.80
2018-07-02T05:33:18.285Z,69.60
2018-07-02T05:35:46.624Z,69.30
2018-07-02T05:38:14.950Z,70.10
2018-07-02T05:40:43.324Z,69.30
2018-07-02T05:43:11.696Z,69.00
2018-07-02T05:45:40.031Z,68.80
2018-07-02T05:48:08.375Z,69.00
2018-07-02T05:50:36.685Z,68.40
2018-07-02T05:53:05.050Z,68.50
2018-07-02T05:55:33.395Z,68.30
2018-07-02T05:58:01.809Z,68.60
2018-07-02T06:00:30.362Z,68.40
2018-07-02T06:02:58.727Z,67.50
2018-07-02T06:05:27.116Z,68.30
2018-07-02T06:07:55.594Z,67.80
2018-07-02T06:10:24.170Z,67.00
2018-07-02T06:12:52.555Z,67.10
2018-07-02T06:15:20.949Z,67.40
2018-07-02T06:17:49.340Z,66.90
2018-07-02T06:20:17.673Z,66.20
2018-07-02T06:22:46.196Z,66.40
2018-07-02T06:25:14.578Z,66.10
2018-07-02T06:27:43.077Z,66.10
2018-07-02T06:30:11.397Z,66.50
2018-07-02T06:32:39.903Z,65.90
2018-07-02T06:35:10.299Z,65.30
2018-07-02T06:37:38.743Z,64.50
2018-07-02T06:40:07.370Z,64.30
2018-07-02T06:42:35.904Z,64.50
2018-07-02T06:45:04.574Z,64.40
2018-07-02T06:47:33.850Z,64.50
2018-07-02T06:50:03.293Z,65.20
2018-07-02T06:52:31.580Z,64.90
2018-07-02T06:54:59.931Z,63.70
2018-07-02T06:57:28.242Z,64.60
2018-07-02T06:59:56.601Z,62.90
2018-07-02T07:02:24.893Z,62.20
2018-07-02T07:04:53.242Z,63.00
2018-07-02T07:07:21.540Z,62.60
2018-07-02T07:09:49.892Z,61.90
2018-07-02T07:12:18.220Z,61.40
2018-07-02T07:14:46.568Z,61.50
2018-07-02T07:17:14.945Z,60.60
2018-07-02T07:19:43.494Z,61.50
2018-07-02T07:22:11.963Z,61.60
2018-07-02T07:24:40.371Z,61.40
2018-07-02T07:27:08.770Z,61.40
2018-07-02T07:29:37.192Z,60.80
2018-07-02T07:32:05.525Z,60.10
2018-07-02T07:34:34.911Z,60.40
2018-07-02T07:37:03.254Z,60.10
2018-07-02T07:39:31.569Z,59.20
2018-07-02T07:42:00.109Z,59.00
2018-07-02T07:44:28.461Z,58.60
2018-07-02T07:46:56.767Z,57.90
2018-07-02T07:49:25.102Z,58.10
2018-07-02T07:51:53.431Z,57.10
2018-07-02T07:54:21.747Z,56.80
2018-07-02T07:56:51.567Z,56.40
2018-07-02T07:59:20.003Z,56.80
2018-07-02T08:01:48.463Z,57.60
2018-07-02T08:04:16.835Z,57.00
2018-07-02T08:06:45.273Z,57.30
2018-07-02T08:11:42.601Z,55.50
2018-07-02T08:14:10.924Z,55.50
2018-07-02T08:16:39.221Z,55.10
2018-07-02T08:19:07.624Z,53.90
2018-07-02T08:21:36.008Z,53.70
2018-07-02T08:24:04.422Z,54.20
2018-07-02T08:26:32.760Z,52.80
2018-07-02T08:29:01.083Z,52.20
2018-07-02T08:31:29.505Z,51.70
2018-07-02T08:33:57.884Z,52.10
2018-07-02T08:36:26.380Z,52.50
2018-07-02T08:38:54.833Z,52.70
2018-07-02T08:41:23.290Z,52.50
2018-07-02T08:43:52.024Z,52.70
2018-07-02T08:46:20.401Z,51.10
2018-07-02T08:48:48.752Z,52.00
2018-07-02T08:51:17.097Z,51.70
2018-07-02T08:53:45.391Z,50.60
2018-07-02T08:56:13.709Z,50.80
2018-07-02T08:58:42.053Z,50.30
2018-07-02T09:01:10.463Z,50.60
2018-07-02T09:03:38.839Z,49.90
2018-07-02T09:06:07.194Z,50.80
2018-07-02T09:08:35.635Z,51.90
2018-07-02T09:11:04.043Z,50.30
2018-07-02T09:16:00.735Z,50.10
2018-07-02T09:18:29.114Z,49.40
2018-07-02T09:20:57.475Z,49.40
2018-07-02T09:23:25.816Z,49.60
2018-07-02T09:25:54.251Z,49.30
2018-07-02T09:28:22.548Z,49.30
2018-07-02T09:30:50.969Z,48.90
2018-07-02T09:33:19.296Z,49.00
2018-07-02T09:35:47.602Z,47.20
2018-07-02T09:38:15.913Z,48.00
2018-07-02T09:40:44.245Z,48.00
2018-07-02T09:43:12.532Z,47.30
2018-07-02T09:45:40.922Z,48.30
2018-07-02T09:48:09.263Z,47.70
2018-07-02T09:50:37.671Z,46.80
2018-07-02T09:53:06.568Z,46.70
2018-07-02T09:55:34.993Z,47.50
2018-07-02T09:58:03.317Z,47.30
2018-07-02T10:00:32.002Z,45.60
2018-07-02T10:03:00.389Z,46.40
2018-07-02T10:05:28.719Z,46.80
2018-07-02T10:07:57.108Z,46.10
2018-07-02T10:10:25.435Z,47.30
2018-07-02T10:12:53.789Z,47.00
2018-07-02T10:15:22.269Z,46.60
2018-07-02T10:17:53.654Z,46.40
2018-07-02T10:20:22.041Z,47.60
2018-07-02T10:22:50.350Z,47.50
2018-07-02T10:25:18.699Z,45.80
2018-07-02T10:27:47.156Z,46.80
2018-07-02T10:30:15.506Z,45.40
2018-07-02T10:32:43.865Z,45.40
2018-07-02T10:35:18.747Z,45.40
2018-07-02T10:37:47.056Z,45.60
2018-07-02T10:40:15.584Z,45.00
2018-07-02T10:42:43.918Z,44.00
2018-07-02T10:45:12.269Z,44.10
2018-07-02T10:47:40.525Z,45.60
2018-07-02T10:50:08.809Z,46.20
2018-07-02T10:52:37.129Z,46.50
2018-07-02T10:55:05.415Z,45.50
2018-07-02T10:57:33.801Z,44.60
2018-07-02T11:00:02.082Z,42.80
2018-07-02T11:02:30.338Z,43.20
2018-07-02T11:04:58.644Z,43.80
2018-07-02T11:07:26.923Z,41.30
2018-07-02T11:09:55.195Z,42.20
2018-07-02T11:12:23.454Z,42.30
2018-07-02T11:14:51.775Z,43.50
2018-07-02T11:17:20.052Z,44.60
2018-07-02T11:19:48.406Z,45.40
2018-07-02T11:22:16.714Z,42.20
2018-07-02T11:24:45.746Z,42.60
2018-07-02T11:27:14.086Z,43.50
2018-07-02T11:29:44.222Z,43.90
2018-07-02T11:32:12.542Z,43.90
2018-07-02T11:34:40.854Z,44.90
2018-07-02T11:37:09.284Z,44.90
2018-07-02T11:39:37.640Z,45.00
2018-07-02T11:42:05.985Z,44.20
2018-07-02T11:44:35.724Z,44.00
2018-07-02T11:47:04.009Z,44.00
2018-07-02T11:49:32.380Z,46.00
2018-07-02T11:52:00.817Z,45.30
2018-07-02T11:54:29.134Z,44.20
2018-07-02T11:56:57.551Z,44.20
2018-07-02T11:59:25.878Z,43.40
2018-07-02T12:01:54.216Z,43.50
2018-07-02T12:06:57.105Z,42.70
2018-07-02T12:09:25.402Z,42.90
2018-07-02T12:12:00.520Z,41.90
2018-07-02T12:14:28.814Z,43.50
2018-07-02T12:16:57.162Z,44.20
2018-07-02T12:19:25.533Z,43.70
2018-07-02T12:21:53.834Z,44.70
2018-07-02T12:24:22.157Z,42.60
2018-07-02T12:26:50.575Z,42.20
2018-07-02T12:31:46.940Z,42.00
2018-07-02T12:34:15.251Z,41.60
2018-07-02T12:36:43.540Z,42.80
2018-07-02T12:39:13.561Z,42.90
2018-07-02T12:41:42.767Z,41.20
2018-07-02T12:44:12.727Z,40.30
2018-07-02T12:46:41.382Z,40.20
2018-07-02T12:49:09.734Z,40.40
2018-07-02T12:51:38.023Z,40.10
2018-07-02T12:54:06.467Z,40.70
2018-07-02T12:56:34.997Z,39.50
2018-07-02T12:59:03.304Z,38.40
2018-07-02T13:01:31.608Z,40.10
2018-07-02T13:03:59.884Z,38.80
2018-07-02T13:06:28.261Z,36.70
2018-07-02T13:08:56.588Z,39.00
2018-07-02T13:11:24.891Z,38.20
2018-07-02T13:13:53.283Z,37.30
2018-07-02T13:16:21.620Z,38.30
2018-07-02T13:18:49.934Z,38.20
2018-07-02T13:21:18.288Z,38.60
2018-07-02T13:23:46.662Z,39.00
2018-07-02T13:26:14.975Z,39.10
2018-07-02T13:28:43.399Z,38.30
2018-07-02T13:31:11.777Z,38.00
2018-07-02T13:33:40.105Z,39.30
2018-07-02T13:36:08.402Z,36.70
2018-07-02T13:38:36.730Z,35.30
2018-07-02T13:41:05.077Z,35.90
2018-07-02T13:43:33.398Z,36.50
2018-07-02T13:46:01.680Z,37.00
2018-07-02T13:48:30.024Z,36.30
2018-07-02T13:50:58.310Z,38.00
2018-07-02T13:53:26.589Z,37.70
2018-07-02T13:55:54.917Z,37.20
2018-07-02T13:58:23.190Z,37.60
2018-07-02T14:00:51.576Z,38.40
2018-07-02T14:03:19.903Z,40.10
2018-07-02T14:05:48.250Z,39.60
2018-07-02T14:08:16.916Z,38.90
2018-07-02T14:10:45.246Z,37.90
2018-07-02T14:13:13.540Z,38.80
2018-07-02T14:15:41.920Z,37.60
2018-07-02T14:18:10.240Z,37.90
2018-07-02T14:20:38.565Z,38.30
2018-07-02T14:23:07.008Z,38.90
2018-07-02T14:25:35.332Z,38.30
2018-07-02T14:28:03.654Z,37.90
2018-07-02T14:30:32.136Z,39.10
2018-07-02T14:33:00.524Z,37.50
2018-07-02T14:35:28.936Z,36.30
2018-07-02T14:37:57.333Z,37.70
2018-07-02T14:40:25.814Z,37.80
2018-07-02T14:42:54.490Z,37.20
2018-07-02T14:45:23.087Z,37.50
2018-07-02T14:47:51.306Z,37.20
2018-07-02T14:50:19.644Z,36.90
2018-07-02T14:52:49.080Z,37.60
2018-07-02T14:55:17.437Z,38.30
2018-07-02T14:57:45.764Z,38.10
2018-07-02T15:00:14.100Z,37.70
2018-07-02T15:02:42.472Z,38.40
2018-07-02T15:05:10.764Z,37.10
2018-07-02T15:07:39.021Z,36.80
2018-07-02T15:10:07.446Z,37.10
2018-07-02T15:12:35.783Z,37.80
2018-07-02T15:15:04.509Z,37.70
2018-07-02T15:17:32.882Z,38.00
2018-07-02T15:20:01.268Z,36.90
2018-07-02T15:22:30.777Z,36.60
2018-07-02T15:24:59.169Z,36.80
2018-07-02T15:27:27.494Z,36.20
2018-07-02T15:29:55.820Z,36.60
2018-07-02T15:32:24.162Z,36.80
2018-07-02T15:34:52.543Z,36.30
2018-07-02T15:37:20.841Z,36.60
2018-07-02T15:39:49.151Z,35.20
2018-07-02T15:42:17.445Z,34.90
2018-07-02T15:44:45.842Z,34.30
2018-07-02T15:47:14.191Z,34.60
2018-07-02T15:49:42.568Z,34.70
2018-07-02T15:52:10.989Z,34.60
2018-07-02T15:54:39.326Z,34.40
2018-07-02T15:57:08.549Z,34.20
2018-07-02T15:59:36.982Z,34.30
2018-07-02T16:02:05.524Z,34.30
2018-07-02T16:04:33.818Z,33.90
2018-07-02T16:07:02.115Z,33.70
2018-07-02T16:09:30.438Z,33.60
2018-07-02T16:11:58.727Z,33.90
2018-07-02T16:14:27.016Z,34.80
2018-07-02T16:19:23.330Z,32.90
2018-07-02T16:21:51.616Z,33.20
2018-07-02T16:24:19.926Z,33.20
2018-07-02T16:26:48.262Z,32.70
2018-07-02T16:29:23.316Z,32.30
2018-07-02T16:31:51.618Z,32.30
2018-07-02T16:34:20.005Z,31.90
2018-07-02T16:36:48.322Z,32.60
2018-07-02T16:39:16.776Z,30.90
2018-07-02T16:41:45.125Z,30.30
2018-07-02T16:44:13.449Z,30.00
2018-07-02T16:46:41.868Z,30.50
2018-07-02T16:49:10.165Z,30.60
2018-07-02T16:51:38.438Z,30.20
2018-07-02T16:54:06.839Z,31.00
2018-07-02T16:56:35.409Z,30.80
2018-07-02T16:59:04.115Z,30.90
2018-07-02T17:01:32.453Z,30.50
2018-07-02T17:04:00.794Z,29.90
2018-07-02T17:06:29.145Z,29.60
2018-07-02T17:08:57.602Z,29.90
2018-07-02T17:11:25.938Z,29.40
2018-07-02T17:13:54.259Z,29.50
2018-07-02T17:16:22.582Z,29.30
2018-07-02T17:18:50.990Z,29.20
2018-07-02T17:21:19.370Z,29.30
2018-07-02T17:23:48.098Z,28.60
2018-07-02T17:26:16.409Z,28.50
2018-07-02T17:28:44.702Z,28.90
2018-07-02T17:31:12.963Z,29.10
2018-07-02T17:33:41.232Z,29.30
2018-07-02T17:36:09.660Z,28.40
2018-07-02T17:38:38.020Z,29.00
2018-07-02T17:41:06.371Z,29.10
2018-07-02T17:43:34.804Z,28.20
2018-07-02T17:46:03.115Z,28.50
2018-07-02T17:48:31.522Z,28.60
2018-07-02T17:51:00.076Z,28.20
2018-07-02T17:53:28.426Z,28.70
2018-07-02T17:55:58.032Z,28.70
2018-07-02T17:58:26.366Z,28.80
2018-07-02T18:00:54.726Z,29.10
2018-07-02T18:03:23.018Z,28.90
2018-07-02T18:05:51.340Z,29.20
2018-07-02T18:08:19.762Z,29.00
2018-07-02T18:10:48.191Z,29.30
2018-07-02T18:13:16.501Z,29.00
2018-07-02T18:15:44.804Z,29.30
2018-07-02T18:18:13.152Z,29.30
2018-07-02T18:20:41.455Z,29.90
2018-07-02T18:24:13.221Z,30.00
2018-07-02T18:26:41.670Z,30.30
2018-07-02T18:29:09.974Z,30.50
2018-07-02T18:31:38.261Z,30.00
2018-07-02T18:34:06.708Z,29.90
2018-07-02T18:36:35.118Z,29.30
2018-07-02T18:39:04.406Z,29.30
2018-07-02T18:41:32.916Z,29.00
2018-07-02T18:44:01.348Z,28.70
2018-07-02T18:46:29.618Z,28.50
2018-07-02T18:48:58.055Z,28.80
2018-07-02T18:51:26.379Z,28.80
2018-07-02T18:53:54.693Z,29.10
2018-07-02T18:56:23.012Z,29.00
2018-07-02T18:58:51.416Z,29.30
2018-07-02T19:01:19.727Z,29.60
2018-07-02T19:03:48.154Z,29.40
2018-07-02T19:06:16.503Z,30.50
2018-07-02T19:08:44.803Z,30.50
2018-07-02T19:11:13.357Z,31.70
2018-07-02T19:13:41.987Z,32.60
2018-07-02T19:16:10.821Z,32.50
2018-07-02T19:18:39.209Z,34.60
2018-07-02T19:21:07.602Z,35.00
2018-07-02T19:23:35.954Z,35.70
2018-07-02T19:26:04.305Z,36.00
2018-07-02T19:28:32.633Z,36.20
2018-07-02T19:31:00.956Z,37.00
2018-07-02T19:33:29.407Z,37.30
2018-07-02T19:35:57.709Z,37.80
2018-07-02T19:38:26.049Z,38.10
2018-07-02T19:40:54.481Z,37.90
2018-07-02T19:46:21.836Z,38.30
2018-07-02T19:48:50.415Z,38.70
2018-07-02T19:51:18.808Z,39.20
2018-07-02T19:53:47.248Z,39.10
2018-07-02T19:56:15.965Z,39.50
2018-07-02T19:58:44.417Z,40.00
2018-07-02T20:01:12.791Z,40.40
2018-07-02T20:03:41.151Z,40.30
2018-07-02T20:06:09.510Z,40.10
2018-07-02T20:08:37.873Z,40.80
2018-07-02T20:11:06.439Z,41.70
2018-07-02T20:13:34.785Z,42.30
2018-07-02T20:16:03.167Z,42.70
2018-07-02T20:18:31.477Z,42.40
2018-07-02T20:20:59.786Z,41.40
2018-07-02T20:23:28.044Z,42.10
2018-07-02T20:25:56.367Z,42.40
2018-07-02T20:28:24.690Z,42.90
2018-07-02T20:30:53.116Z,42.80
2018-07-02T20:33:21.558Z,43.50
2018-07-02T20:35:50.201Z,44.00
2018-07-02T20:38:18.621Z,44.10
2018-07-02T20:40:46.982Z,45.00
2018-07-02T20:43:15.399Z,45.10
2018-07-02T20:45:43.830Z,46.20
2018-07-02T20:48:12.126Z,45.90
2018-07-02T20:50:40.436Z,46.00
2018-07-02T20:53:08.799Z,45.50
2018-07-02T20:55:37.157Z,46.20
2018-07-02T20:58:05.505Z,46.20
2018-07-02T21:00:33.904Z,46.40
2018-07-02T21:03:03.309Z,46.60
2018-07-02T21:05:32.239Z,46.70
2018-07-02T21:08:00.614Z,46.50
2018-07-02T21:10:29.115Z,46.80
2018-07-02T21:12:57.438Z,46.60
2018-07-02T21:15:25.849Z,48.00
2018-07-02T21:17:54.135Z,47.60
2018-07-02T21:20:22.457Z,47.70
2018-07-02T21:22:50.870Z,47.90
2018-07-02T21:25:19.199Z,47.50
2018-07-02T21:27:47.524Z,48.60
2018-07-02T21:30:15.807Z,49.10
2018-07-02T21:32:44.101Z,50.50
2018-07-02T21:35:12.403Z,52.20
2018-07-02T21:37:40.712Z,54.00
2018-07-02T21:40:09.098Z,55.60
2018-07-02T21:42:38.387Z,57.10
2018-07-02T21:45:06.803Z,57.70
2018-07-02T21:47:35.145Z,58.50
2018-07-02T21:50:03.626Z,59.10
2018-07-02T21:52:32.446Z,60.00
2018-07-02T21:55:00.771Z,60.80
2018-07-02T21:57:29.094Z,61.10
2018-07-02T21:59:57.622Z,61.60
2018-07-02T22:02:26.023Z,61.90
2018-07-02T22:04:54.387Z,62.20
2018-07-02T22:07:22.687Z,62.70
2018-07-02T22:09:51.140Z,63.00
2018-07-02T22:12:19.439Z,63.40
2018-07-02T22:14:47.947Z,63.80
2018-07-02T22:17:16.444Z,64.40
2018-07-02T22:19:44.761Z,65.00
2018-07-02T22:22:13.064Z,65.50
2018-07-02T22:24:41.394Z,66.00
2018-07-02T22:29:37.812Z,66.70
2018-07-02T22:32:06.182Z,67.10
2018-07-02T22:34:34.625Z,67.30
2018-07-02T22:37:02.901Z,67.40
2018-07-02T22:39:31.222Z,67.90
2018-07-02T22:41:59.557Z,68.10
2018-07-02T22:44:27.824Z,68.20
2018-07-02T22:46:56.177Z,69.20
2018-07-02T22:49:24.478Z,68.60
2018-07-02T22:51:52.871Z,68.80
2018-07-02T22:54:21.241Z,69.10
2018-07-02T22:56:49.541Z,69.40
2018-07-02T22:59:17.898Z,69.70
2018-07-02T23:01:46.364Z,70.00
2018-07-02T23:04:14.688Z,70.20
2018-07-02T23:06:43.464Z,70.40
2018-07-02T23:09:11.763Z,70.50
2018-07-02T23:11:40.078Z,70.70
2018-07-02T23:14:08.400Z,70.90
2018-07-02T23:16:36.816Z,71.20
2018-07-02T23:21:33.210Z,72.00
2018-07-02T23:24:01.542Z,72.10
2018-07-02T23:26:29.814Z,72.30
2018-07-02T23:28:58.111Z,72.60
2018-07-02T23:31:26.420Z,72.80
2018-07-02T23:33:54.731Z,73.00
2018-07-02T23:36:24.081Z,73.30
2018-07-02T23:38:52.397Z,73.30
2018-07-02T23:41:21.735Z,73.50
2018-07-02T23:43:50.084Z,73.70
2018-07-02T23:46:19.367Z,73.70
2018-07-02T23:48:47.682Z,74.00
2018-07-02T23:51:16.115Z,74.00
2018-07-02T23:53:44.403Z,74.30
2018-07-02T23:56:12.680Z,74.10
2018-07-02T23:58:40.958Z,74.30
